sensor_id;sensor_type;location;lat;lon;timestamp;P1;durP1;ratioP1;P2;durP2;ratioP2
45338;SDS011;31071;51.478;5.710;2022-09-01T00:01:04;3.33;;;1.27;;
45338;SDS011;31071;51.478;5.710;2022-09-01T00:03:34;4.57;;;1.20;;
45338;SDS011;31071;51.478;5.710;2022-09-01T00:06:01;2.30;;;1.30;;
45338;SDS011;31071;51.478;5.710;2022-09-01T00:08:28;4.35;;;1.02;;
45338;SDS011;31071;51.478;5.710;2022-09-01T00:10:53;2.22;;;1.00;;
45338;SDS011;31071;51.478;5.710;2022-09-01T00:13:19;1.73;;;1.00;;
45338;SDS011;31071;51.478;5.710;2022-09-01T00:15:45;2.45;;;1.30;;
45338;SDS011;31071;51.478;5.710;2022-09-01T00:18:10;2.42;;;1.13;;
45338;SDS011;31071;51.478;5.710;2022-09-01T00:20:36;3.83;;;1.33;;
45338;SDS011;31071;51.478;5.710;2022-09-01T00:23:01;2.17;;;1.30;;
45338;SDS011;31071;51.478;5.710;2022-09-01T00:25:27;2.97;;;1.20;;
45338;SDS011;31071;51.478;5.710;2022-09-01T00:27:53;3.33;;;1.23;;
45338;SDS011;31071;51.478;5.710;2022-09-01T00:30:23;1.67;;;1.50;;
45338;SDS011;31071;51.478;5.710;2022-09-01T00:32:48;1.25;;;1.00;;
45338;SDS011;31071;51.478;5.710;2022-09-01T00:35:15;2.40;;;1.13;;
45338;SDS011;31071;51.478;5.710;2022-09-01T00:37:42;6.63;;;1.50;;
45338;SDS011;31071;51.478;5.710;2022-09-01T00:40:09;3.13;;;1.52;;
45338;SDS011;31071;51.478;5.710;2022-09-01T00:42:37;2.28;;;1.27;;
45338;SDS011;31071;51.478;5.710;2022-09-01T00:45:04;1.90;;;1.23;;
45338;SDS011;31071;51.478;5.710;2022-09-01T00:47:30;4.15;;;1.45;;
45338;SDS011;31071;51.478;5.710;2022-09-01T00:49:56;8.35;;;1.38;;
45338;SDS011;31071;51.478;5.710;2022-09-01T00:52:26;1.98;;;1.33;;
45338;SDS011;31071;51.478;5.710;2022-09-01T00:54:57;5.35;;;1.33;;
45338;SDS011;31071;51.478;5.710;2022-09-01T00:57:26;7.72;;;1.77;;
45338;SDS011;31071;51.478;5.710;2022-09-01T01:00:15;4.30;;;1.45;;
45338;SDS011;31071;51.478;5.710;2022-09-01T01:02:44;2.22;;;1.42;;
45338;SDS011;31071;51.478;5.710;2022-09-01T01:05:11;3.33;;;1.70;;
45338;SDS011;31071;51.478;5.710;2022-09-01T01:07:38;2.28;;;1.40;;
45338;SDS011;31071;51.478;5.710;2022-09-01T01:10:06;4.45;;;1.60;;
45338;SDS011;31071;51.478;5.710;2022-09-01T01:12:38;3.40;;;1.40;;
45338;SDS011;31071;51.478;5.710;2022-09-01T01:15:05;5.18;;;1.52;;
45338;SDS011;31071;51.478;5.710;2022-09-01T01:17:35;2.78;;;1.40;;
45338;SDS011;31071;51.478;5.710;2022-09-01T01:20:00;3.83;;;1.80;;
45338;SDS011;31071;51.478;5.710;2022-09-01T01:25:52;3.22;;;1.92;;
45338;SDS011;31071;51.478;5.710;2022-09-01T01:28:21;2.85;;;1.50;;
45338;SDS011;31071;51.478;5.710;2022-09-01T01:31:33;1.90;;;1.70;;
45338;SDS011;31071;51.478;5.710;2022-09-01T01:33:46;2.88;;;1.90;;
45338;SDS011;31071;51.478;5.710;2022-09-01T01:36:22;3.15;;;1.50;;
45338;SDS011;31071;51.478;5.710;2022-09-01T01:39:31;3.20;;;1.67;;
45338;SDS011;31071;51.478;5.710;2022-09-01T01:41:50;7.03;;;1.92;;
45338;SDS011;31071;51.478;5.710;2022-09-01T01:44:17;9.55;;;2.08;;
45338;SDS011;31071;51.478;5.710;2022-09-01T01:46:49;3.83;;;1.55;;
45338;SDS011;31071;51.478;5.710;2022-09-01T01:49:17;3.72;;;1.80;;
45338;SDS011;31071;51.478;5.710;2022-09-01T01:51:46;3.22;;;2.10;;
45338;SDS011;31071;51.478;5.710;2022-09-01T01:54:13;3.72;;;1.92;;
45338;SDS011;31071;51.478;5.710;2022-09-01T01:56:46;4.20;;;1.80;;
45338;SDS011;31071;51.478;5.710;2022-09-01T01:59:12;2.80;;;1.60;;
45338;SDS011;31071;51.478;5.710;2022-09-01T02:01:38;5.38;;;2.00;;
45338;SDS011;31071;51.478;5.710;2022-09-01T02:04:06;6.72;;;1.95;;
45338;SDS011;31071;51.478;5.710;2022-09-01T02:06:36;6.72;;;2.03;;
45338;SDS011;31071;51.478;5.710;2022-09-01T02:09:05;3.38;;;2.10;;
45338;SDS011;31071;51.478;5.710;2022-09-01T02:11:32;3.88;;;1.85;;
45338;SDS011;31071;51.478;5.710;2022-09-01T02:14:01;3.55;;;1.80;;
45338;SDS011;31071;51.478;5.710;2022-09-01T02:16:30;3.70;;;1.70;;
45338;SDS011;31071;51.478;5.710;2022-09-01T02:18:56;6.03;;;2.08;;
45338;SDS011;31071;51.478;5.710;2022-09-01T02:21:24;3.78;;;1.98;;
45338;SDS011;31071;51.478;5.710;2022-09-01T02:24:01;4.32;;;1.88;;
45338;SDS011;31071;51.478;5.710;2022-09-01T02:26:33;4.78;;;2.15;;
45338;SDS011;31071;51.478;5.710;2022-09-01T02:29:03;4.72;;;2.25;;
45338;SDS011;31071;51.478;5.710;2022-09-01T02:31:34;5.57;;;2.17;;
45338;SDS011;31071;51.478;5.710;2022-09-01T02:34:04;4.53;;;2.05;;
45338;SDS011;31071;51.478;5.710;2022-09-01T02:36:43;2.13;;;1.75;;
45338;SDS011;31071;51.478;5.710;2022-09-01T02:39:15;5.70;;;2.03;;
45338;SDS011;31071;51.478;5.710;2022-09-01T02:41:47;4.50;;;2.45;;
45338;SDS011;31071;51.478;5.710;2022-09-01T02:44:13;4.38;;;1.88;;
45338;SDS011;31071;51.478;5.710;2022-09-01T02:46:40;4.28;;;1.77;;
45338;SDS011;31071;51.478;5.710;2022-09-01T02:49:17;2.78;;;2.13;;
45338;SDS011;31071;51.478;5.710;2022-09-01T02:51:49;4.75;;;2.20;;
45338;SDS011;31071;51.478;5.710;2022-09-01T02:54:18;5.97;;;2.58;;
45338;SDS011;31071;51.478;5.710;2022-09-01T02:56:47;8.13;;;2.42;;
45338;SDS011;31071;51.478;5.710;2022-09-01T02:59:17;2.92;;;2.13;;
45338;SDS011;31071;51.478;5.710;2022-09-01T03:01:46;7.22;;;2.60;;
45338;SDS011;31071;51.478;5.710;2022-09-01T03:04:13;3.75;;;2.17;;
45338;SDS011;31071;51.478;5.710;2022-09-01T03:06:49;3.03;;;2.20;;
45338;SDS011;31071;51.478;5.710;2022-09-01T03:09:18;5.28;;;2.40;;
45338;SDS011;31071;51.478;5.710;2022-09-01T03:11:46;3.75;;;2.63;;
45338;SDS011;31071;51.478;5.710;2022-09-01T03:14:14;3.22;;;2.42;;
45338;SDS011;31071;51.478;5.710;2022-09-01T03:16:41;5.25;;;2.50;;
45338;SDS011;31071;51.478;5.710;2022-09-01T03:19:07;4.47;;;2.47;;
45338;SDS011;31071;51.478;5.710;2022-09-01T03:21:37;3.33;;;2.10;;
45338;SDS011;31071;51.478;5.710;2022-09-01T03:24:05;4.07;;;2.15;;
45338;SDS011;31071;51.478;5.710;2022-09-01T03:26:33;4.25;;;3.08;;
45338;SDS011;31071;51.478;5.710;2022-09-01T03:29:00;4.15;;;2.65;;
45338;SDS011;31071;51.478;5.710;2022-09-01T03:31:26;4.93;;;3.13;;
45338;SDS011;31071;51.478;5.710;2022-09-01T03:33:53;4.60;;;2.50;;
45338;SDS011;31071;51.478;5.710;2022-09-01T03:36:21;3.70;;;2.35;;
45338;SDS011;31071;51.478;5.710;2022-09-01T03:38:52;4.00;;;2.28;;
45338;SDS011;31071;51.478;5.710;2022-09-01T03:41:21;4.95;;;2.60;;
45338;SDS011;31071;51.478;5.710;2022-09-01T03:43:49;5.15;;;2.65;;
45338;SDS011;31071;51.478;5.710;2022-09-01T03:46:16;6.93;;;2.55;;
45338;SDS011;31071;51.478;5.710;2022-09-01T03:48:55;4.90;;;3.15;;
45338;SDS011;31071;51.478;5.710;2022-09-01T03:51:29;5.38;;;2.55;;
45338;SDS011;31071;51.478;5.710;2022-09-01T03:53:55;8.13;;;2.95;;
45338;SDS011;31071;51.478;5.710;2022-09-01T03:56:30;6.63;;;3.00;;
45338;SDS011;31071;51.478;5.710;2022-09-01T03:58:57;3.13;;;2.70;;
45338;SDS011;31071;51.478;5.710;2022-09-01T04:01:24;6.60;;;2.97;;
45338;SDS011;31071;51.478;5.710;2022-09-01T04:03:52;6.75;;;2.78;;
45338;SDS011;31071;51.478;5.710;2022-09-01T04:06:18;7.45;;;3.03;;
45338;SDS011;31071;51.478;5.710;2022-09-01T04:08:44;6.05;;;2.90;;
45338;SDS011;31071;51.478;5.710;2022-09-01T04:11:15;4.57;;;2.88;;
45338;SDS011;31071;51.478;5.710;2022-09-01T04:13:42;7.63;;;3.08;;
45338;SDS011;31071;51.478;5.710;2022-09-01T04:16:24;3.42;;;2.88;;
45338;SDS011;31071;51.478;5.710;2022-09-01T04:19:11;5.57;;;3.22;;
45338;SDS011;31071;51.478;5.710;2022-09-01T04:21:58;4.50;;;2.80;;
45338;SDS011;31071;51.478;5.710;2022-09-01T04:24:24;5.57;;;2.90;;
45338;SDS011;31071;51.478;5.710;2022-09-01T04:26:55;3.75;;;2.72;;
45338;SDS011;31071;51.478;5.710;2022-09-01T04:29:22;5.82;;;3.00;;
45338;SDS011;31071;51.478;5.710;2022-09-01T04:31:51;3.75;;;2.83;;
45338;SDS011;31071;51.478;5.710;2022-09-01T04:34:18;2.90;;;2.70;;
45338;SDS011;31071;51.478;5.710;2022-09-01T04:36:48;4.85;;;2.95;;
45338;SDS011;31071;51.478;5.710;2022-09-01T04:39:20;4.38;;;2.88;;
45338;SDS011;31071;51.478;5.710;2022-09-01T04:41:46;5.18;;;3.10;;
45338;SDS011;31071;51.478;5.710;2022-09-01T04:44:15;3.05;;;2.58;;
45338;SDS011;31071;51.478;5.710;2022-09-01T04:46:44;5.15;;;3.00;;
45338;SDS011;31071;51.478;5.710;2022-09-01T04:49:12;5.32;;;3.00;;
45338;SDS011;31071;51.478;5.710;2022-09-01T04:51:43;10.90;;;3.38;;
45338;SDS011;31071;51.478;5.710;2022-09-01T04:54:11;4.18;;;3.00;;
45338;SDS011;31071;51.478;5.710;2022-09-01T04:56:42;3.63;;;3.00;;
45338;SDS011;31071;51.478;5.710;2022-09-01T04:59:10;4.78;;;2.58;;
45338;SDS011;31071;51.478;5.710;2022-09-01T05:01:37;5.80;;;2.90;;
45338;SDS011;31071;51.478;5.710;2022-09-01T05:04:11;4.18;;;2.55;;
45338;SDS011;31071;51.478;5.710;2022-09-01T05:06:44;5.15;;;2.85;;
45338;SDS011;31071;51.478;5.710;2022-09-01T05:09:13;6.43;;;4.32;;
45338;SDS011;31071;51.478;5.710;2022-09-01T05:11:40;5.75;;;3.40;;
45338;SDS011;31071;51.478;5.710;2022-09-01T05:14:10;7.82;;;3.28;;
45338;SDS011;31071;51.478;5.710;2022-09-01T05:16:45;5.95;;;3.00;;
45338;SDS011;31071;51.478;5.710;2022-09-01T05:19:11;24.40;;;4.30;;
45338;SDS011;31071;51.478;5.710;2022-09-01T05:21:42;4.22;;;3.15;;
45338;SDS011;31071;51.478;5.710;2022-09-01T05:24:09;3.63;;;3.15;;
45338;SDS011;31071;51.478;5.710;2022-09-01T05:26:36;3.88;;;2.63;;
45338;SDS011;31071;51.478;5.710;2022-09-01T05:29:05;5.40;;;2.78;;
45338;SDS011;31071;51.478;5.710;2022-09-01T05:31:45;4.13;;;2.78;;
45338;SDS011;31071;51.478;5.710;2022-09-01T05:34:13;5.65;;;2.67;;
45338;SDS011;31071;51.478;5.710;2022-09-01T05:36:44;4.05;;;2.53;;
45338;SDS011;31071;51.478;5.710;2022-09-01T05:39:14;6.50;;;2.38;;
45338;SDS011;31071;51.478;5.710;2022-09-01T05:41:40;3.90;;;2.33;;
45338;SDS011;31071;51.478;5.710;2022-09-01T05:44:07;5.13;;;2.53;;
45338;SDS011;31071;51.478;5.710;2022-09-01T05:46:37;6.18;;;2.90;;
45338;SDS011;31071;51.478;5.710;2022-09-01T05:49:04;3.05;;;2.50;;
45338;SDS011;31071;51.478;5.710;2022-09-01T05:51:38;4.95;;;2.75;;
45338;SDS011;31071;51.478;5.710;2022-09-01T05:54:05;3.75;;;2.30;;
45338;SDS011;31071;51.478;5.710;2022-09-01T05:56:33;7.78;;;2.75;;
45338;SDS011;31071;51.478;5.710;2022-09-01T05:59:03;4.22;;;2.50;;
45338;SDS011;31071;51.478;5.710;2022-09-01T06:01:29;10.48;;;2.60;;
45338;SDS011;31071;51.478;5.710;2022-09-01T06:03:57;5.07;;;2.50;;
45338;SDS011;31071;51.478;5.710;2022-09-01T06:09:02;5.07;;;2.30;;
45338;SDS011;31071;51.478;5.710;2022-09-01T06:11:29;4.75;;;2.60;;
45338;SDS011;31071;51.478;5.710;2022-09-01T06:13:57;4.40;;;2.60;;
45338;SDS011;31071;51.478;5.710;2022-09-01T06:16:24;3.33;;;2.30;;
45338;SDS011;31071;51.478;5.710;2022-09-01T06:18:51;7.03;;;2.25;;
45338;SDS011;31071;51.478;5.710;2022-09-01T06:21:18;5.10;;;2.50;;
45338;SDS011;31071;51.478;5.710;2022-09-01T06:23:45;7.47;;;2.75;;
45338;SDS011;31071;51.478;5.710;2022-09-01T06:26:29;5.47;;;2.22;;
45338;SDS011;31071;51.478;5.710;2022-09-01T06:29:01;5.65;;;2.28;;
45338;SDS011;31071;51.478;5.710;2022-09-01T06:31:34;9.80;;;2.55;;
45338;SDS011;31071;51.478;5.710;2022-09-01T06:34:03;6.90;;;2.30;;
45338;SDS011;31071;51.478;5.710;2022-09-01T06:36:34;4.57;;;2.50;;
45338;SDS011;31071;51.478;5.710;2022-09-01T06:39:02;6.80;;;2.13;;
45338;SDS011;31071;51.478;5.710;2022-09-01T06:41:28;4.75;;;2.70;;
45338;SDS011;31071;51.478;5.710;2022-09-01T06:43:55;6.60;;;2.20;;
45338;SDS011;31071;51.478;5.710;2022-09-01T06:46:26;5.68;;;2.30;;
45338;SDS011;31071;51.478;5.710;2022-09-01T06:48:53;4.90;;;2.30;;
45338;SDS011;31071;51.478;5.710;2022-09-01T06:51:23;6.50;;;2.40;;
45338;SDS011;31071;51.478;5.710;2022-09-01T06:53:50;4.55;;;2.55;;
45338;SDS011;31071;51.478;5.710;2022-09-01T06:56:28;4.32;;;2.35;;
45338;SDS011;31071;51.478;5.710;2022-09-01T06:58:55;5.10;;;2.53;;
45338;SDS011;31071;51.478;5.710;2022-09-01T07:01:21;5.50;;;2.35;;
45338;SDS011;31071;51.478;5.710;2022-09-01T07:03:48;6.28;;;2.60;;
45338;SDS011;31071;51.478;5.710;2022-09-01T07:06:16;6.60;;;2.38;;
45338;SDS011;31071;51.478;5.710;2022-09-01T07:08:43;7.15;;;2.72;;
45338;SDS011;31071;51.478;5.710;2022-09-01T07:11:17;7.65;;;2.90;;
45338;SDS011;31071;51.478;5.710;2022-09-01T07:13:51;10.23;;;3.00;;
45338;SDS011;31071;51.478;5.710;2022-09-01T07:16:19;6.65;;;2.85;;
45338;SDS011;31071;51.478;5.710;2022-09-01T07:18:50;7.80;;;2.80;;
45338;SDS011;31071;51.478;5.710;2022-09-01T07:21:18;7.13;;;2.85;;
45338;SDS011;31071;51.478;5.710;2022-09-01T07:23:44;8.00;;;2.80;;
45338;SDS011;31071;51.478;5.710;2022-09-01T07:26:10;8.18;;;3.42;;
45338;SDS011;31071;51.478;5.710;2022-09-01T07:28:42;11.13;;;3.03;;
45338;SDS011;31071;51.478;5.710;2022-09-01T07:31:14;9.63;;;2.95;;
45338;SDS011;31071;51.478;5.710;2022-09-01T07:33:45;6.85;;;3.20;;
45338;SDS011;31071;51.478;5.710;2022-09-01T07:36:13;8.40;;;3.17;;
45338;SDS011;31071;51.478;5.710;2022-09-01T07:38:39;10.07;;;3.28;;
45338;SDS011;31071;51.478;5.710;2022-09-01T07:41:07;9.57;;;3.05;;
45338;SDS011;31071;51.478;5.710;2022-09-01T07:43:32;6.85;;;3.20;;
45338;SDS011;31071;51.478;5.710;2022-09-01T07:45:58;7.90;;;3.13;;
45338;SDS011;31071;51.478;5.710;2022-09-01T07:48:29;9.20;;;2.70;;
45338;SDS011;31071;51.478;5.710;2022-09-01T07:50:54;6.57;;;3.08;;
45338;SDS011;31071;51.478;5.710;2022-09-01T07:53:23;12.05;;;3.13;;
45338;SDS011;31071;51.478;5.710;2022-09-01T07:55:55;6.45;;;2.65;;
45338;SDS011;31071;51.478;5.710;2022-09-01T07:58:24;4.35;;;2.72;;
45338;SDS011;31071;51.478;5.710;2022-09-01T08:00:51;6.82;;;2.80;;
45338;SDS011;31071;51.478;5.710;2022-09-01T08:03:19;7.97;;;2.50;;
45338;SDS011;31071;51.478;5.710;2022-09-01T08:05:46;9.48;;;3.03;;
45338;SDS011;31071;51.478;5.710;2022-09-01T08:08:15;9.25;;;3.08;;
45338;SDS011;31071;51.478;5.710;2022-09-01T08:10:41;5.82;;;2.85;;
45338;SDS011;31071;51.478;5.710;2022-09-01T08:13:08;8.75;;;3.10;;
45338;SDS011;31071;51.478;5.710;2022-09-01T08:15:42;13.73;;;3.05;;
45338;SDS011;31071;51.478;5.710;2022-09-01T08:18:08;7.53;;;3.10;;
45338;SDS011;31071;51.478;5.710;2022-09-01T08:20:36;6.10;;;3.03;;
45338;SDS011;31071;51.478;5.710;2022-09-01T08:23:05;4.20;;;2.78;;
45338;SDS011;31071;51.478;5.710;2022-09-01T08:25:32;8.52;;;3.20;;
45338;SDS011;31071;51.478;5.710;2022-09-01T08:28:00;9.43;;;3.05;;
45338;SDS011;31071;51.478;5.710;2022-09-01T08:30:25;4.72;;;2.72;;
45338;SDS011;31071;51.478;5.710;2022-09-01T08:32:52;5.35;;;2.80;;
45338;SDS011;31071;51.478;5.710;2022-09-01T08:35:17;6.28;;;2.75;;
45338;SDS011;31071;51.478;5.710;2022-09-01T08:37:43;8.38;;;2.70;;
45338;SDS011;31071;51.478;5.710;2022-09-01T08:40:13;7.75;;;3.03;;
45338;SDS011;31071;51.478;5.710;2022-09-01T08:47:47;6.10;;;2.40;;
45338;SDS011;31071;51.478;5.710;2022-09-01T08:50:17;7.45;;;2.90;;
45338;SDS011;31071;51.478;5.710;2022-09-01T08:52:45;9.25;;;2.47;;
45338;SDS011;31071;51.478;5.710;2022-09-01T08:57:50;7.32;;;2.75;;
45338;SDS011;31071;51.478;5.710;2022-09-01T09:00:20;7.20;;;2.60;;
45338;SDS011;31071;51.478;5.710;2022-09-01T09:11:30;6.78;;;2.65;;
45338;SDS011;31071;51.478;5.710;2022-09-01T09:14:13;6.25;;;2.50;;
45338;SDS011;31071;51.478;5.710;2022-09-01T09:16:54;5.60;;;2.00;;
45338;SDS011;31071;51.478;5.710;2022-09-01T09:19:21;6.43;;;2.20;;
45338;SDS011;31071;51.478;5.710;2022-09-01T09:21:50;9.48;;;2.00;;
45338;SDS011;31071;51.478;5.710;2022-09-01T09:27:21;8.05;;;2.42;;
45338;SDS011;31071;51.478;5.710;2022-09-01T09:29:49;3.00;;;2.28;;
45338;SDS011;31071;51.478;5.710;2022-09-01T09:32:20;5.05;;;2.60;;
45338;SDS011;31071;51.478;5.710;2022-09-01T09:34:47;2.30;;;1.85;;
45338;SDS011;31071;51.478;5.710;2022-09-01T09:39:41;4.68;;;2.33;;
45338;SDS011;31071;51.478;5.710;2022-09-01T09:42:11;6.30;;;1.67;;
45338;SDS011;31071;51.478;5.710;2022-09-01T09:44:41;4.80;;;1.77;;
45338;SDS011;31071;51.478;5.710;2022-09-01T09:47:09;5.95;;;1.50;;
45338;SDS011;31071;51.478;5.710;2022-09-01T09:50:09;5.80;;;1.75;;
45338;SDS011;31071;51.478;5.710;2022-09-01T09:52:38;3.75;;;1.67;;
45338;SDS011;31071;51.478;5.710;2022-09-01T09:55:06;4.00;;;1.73;;
45338;SDS011;31071;51.478;5.710;2022-09-01T09:57:45;1.55;;;1.20;;
45338;SDS011;31071;51.478;5.710;2022-09-01T10:02:53;3.58;;;1.30;;
45338;SDS011;31071;51.478;5.710;2022-09-01T10:05:26;2.43;;;1.00;;
45338;SDS011;31071;51.478;5.710;2022-09-01T10:07:58;3.35;;;1.10;;
45338;SDS011;31071;51.478;5.710;2022-09-01T10:10:26;3.90;;;1.30;;
45338;SDS011;31071;51.478;5.710;2022-09-01T10:13:04;4.22;;;0.95;;
45338;SDS011;31071;51.478;5.710;2022-09-01T10:15:34;5.03;;;1.17;;
45338;SDS011;31071;51.478;5.710;2022-09-01T10:18:05;5.30;;;1.40;;
45338;SDS011;31071;51.478;5.710;2022-09-01T10:20:42;2.97;;;1.10;;
45338;SDS011;31071;51.478;5.710;2022-09-01T10:23:17;3.55;;;1.33;;
45338;SDS011;31071;51.478;5.710;2022-09-01T10:25:43;5.78;;;1.30;;
45338;SDS011;31071;51.478;5.710;2022-09-01T10:28:14;4.45;;;1.30;;
45338;SDS011;31071;51.478;5.710;2022-09-01T10:30:43;3.70;;;1.52;;
45338;SDS011;31071;51.478;5.710;2022-09-01T10:33:12;1.40;;;1.00;;
45338;SDS011;31071;51.478;5.710;2022-09-01T10:35:40;4.28;;;1.20;;
45338;SDS011;31071;51.478;5.710;2022-09-01T10:38:14;3.58;;;1.30;;
45338;SDS011;31071;51.478;5.710;2022-09-01T10:40:49;2.80;;;1.23;;
45338;SDS011;31071;51.478;5.710;2022-09-01T10:43:39;3.03;;;1.38;;
45338;SDS011;31071;51.478;5.710;2022-09-01T10:48:44;9.07;;;1.20;;
45338;SDS011;31071;51.478;5.710;2022-09-01T10:53:57;2.78;;;1.33;;
45338;SDS011;31071;51.478;5.710;2022-09-01T11:04:20;1.48;;;1.20;;
45338;SDS011;31071;51.478;5.710;2022-09-01T11:12:50;3.60;;;1.00;;
45338;SDS011;31071;51.478;5.710;2022-09-01T11:18:17;2.35;;;0.93;;
45338;SDS011;31071;51.478;5.710;2022-09-01T11:20:51;2.92;;;1.25;;
45338;SDS011;31071;51.478;5.710;2022-09-01T11:23:27;3.53;;;1.20;;
45338;SDS011;31071;51.478;5.710;2022-09-01T11:25:59;2.50;;;0.98;;
45338;SDS011;31071;51.478;5.710;2022-09-01T11:31:20;2.40;;;1.20;;
45338;SDS011;31071;51.478;5.710;2022-09-01T11:36:44;2.22;;;1.05;;
45338;SDS011;31071;51.478;5.710;2022-09-01T11:44:43;0.98;;;0.90;;
45338;SDS011;31071;51.478;5.710;2022-09-01T11:49:57;2.65;;;0.98;;
45338;SDS011;31071;51.478;5.710;2022-09-01T11:52:51;3.60;;;1.00;;
45338;SDS011;31071;51.478;5.710;2022-09-01T11:55:33;1.33;;;0.93;;
45338;SDS011;31071;51.478;5.710;2022-09-01T11:58:06;5.45;;;0.90;;
45338;SDS011;31071;51.478;5.710;2022-09-01T12:00:36;2.95;;;1.10;;
45338;SDS011;31071;51.478;5.710;2022-09-01T12:05:56;2.55;;;1.92;;
45338;SDS011;31071;51.478;5.710;2022-09-01T12:08:25;1.15;;;0.90;;
45338;SDS011;31071;51.478;5.710;2022-09-01T12:11:07;2.83;;;0.98;;
45338;SDS011;31071;51.478;5.710;2022-09-01T12:13:37;1.15;;;1.05;;
45338;SDS011;31071;51.478;5.710;2022-09-01T12:16:06;2.63;;;0.90;;
45338;SDS011;31071;51.478;5.710;2022-09-01T12:18:34;2.83;;;0.90;;
45338;SDS011;31071;51.478;5.710;2022-09-01T12:21:05;2.22;;;0.88;;
45338;SDS011;31071;51.478;5.710;2022-09-01T12:23:37;3.80;;;1.02;;
45338;SDS011;31071;51.478;5.710;2022-09-01T12:26:08;2.85;;;1.00;;
45338;SDS011;31071;51.478;5.710;2022-09-01T12:28:36;1.05;;;0.95;;
45338;SDS011;31071;51.478;5.710;2022-09-01T12:31:05;3.10;;;0.90;;
45338;SDS011;31071;51.478;5.710;2022-09-01T12:33:37;4.10;;;0.90;;
45338;SDS011;31071;51.478;5.710;2022-09-01T12:38:45;2.83;;;0.97;;
45338;SDS011;31071;51.478;5.710;2022-09-01T12:41:24;5.32;;;1.00;;
45338;SDS011;31071;51.478;5.710;2022-09-01T12:43:50;3.78;;;0.90;;
45338;SDS011;31071;51.478;5.710;2022-09-01T12:50:31;1.45;;;0.90;;
45338;SDS011;31071;51.478;5.710;2022-09-01T12:54:38;4.22;;;0.98;;
45338;SDS011;31071;51.478;5.710;2022-09-01T12:57:04;2.17;;;1.00;;
45338;SDS011;31071;51.478;5.710;2022-09-01T12:59:30;1.40;;;1.30;;
45338;SDS011;31071;51.478;5.710;2022-09-01T13:01:56;2.10;;;1.35;;
45338;SDS011;31071;51.478;5.710;2022-09-01T13:06:53;3.85;;;1.20;;
45338;SDS011;31071;51.478;5.710;2022-09-01T13:09:20;7.82;;;1.33;;
45338;SDS011;31071;51.478;5.710;2022-09-01T13:11:46;4.65;;;1.40;;
45338;SDS011;31071;51.478;5.710;2022-09-01T13:14:13;13.75;;;8.25;;
45338;SDS011;31071;51.478;5.710;2022-09-01T13:16:43;8.02;;;5.20;;
45338;SDS011;31071;51.478;5.710;2022-09-01T13:19:09;5.43;;;3.90;;
45338;SDS011;31071;51.478;5.710;2022-09-01T13:21:35;7.32;;;3.83;;
45338;SDS011;31071;51.478;5.710;2022-09-01T13:24:02;9.73;;;3.85;;
45338;SDS011;31071;51.478;5.710;2022-09-01T13:26:31;5.68;;;3.42;;
45338;SDS011;31071;51.478;5.710;2022-09-01T13:28:57;7.72;;;3.17;;
45338;SDS011;31071;51.478;5.710;2022-09-01T13:31:23;5.25;;;1.52;;
45338;SDS011;31071;51.478;5.710;2022-09-01T13:33:49;2.25;;;1.30;;
45338;SDS011;31071;51.478;5.710;2022-09-01T13:36:14;4.07;;;1.40;;
45338;SDS011;31071;51.478;5.710;2022-09-01T13:38:40;4.03;;;1.10;;
45338;SDS011;31071;51.478;5.710;2022-09-01T13:41:05;4.30;;;1.40;;
45338;SDS011;31071;51.478;5.710;2022-09-01T13:43:35;3.97;;;1.30;;
45338;SDS011;31071;51.478;5.710;2022-09-01T13:46:01;2.55;;;1.30;;
45338;SDS011;31071;51.478;5.710;2022-09-01T13:48:26;3.38;;;1.20;;
45338;SDS011;31071;51.478;5.710;2022-09-01T13:50:53;4.07;;;1.23;;
45338;SDS011;31071;51.478;5.710;2022-09-01T13:53:19;5.97;;;1.50;;
45338;SDS011;31071;51.478;5.710;2022-09-01T13:55:46;3.75;;;1.23;;
45338;SDS011;31071;51.478;5.710;2022-09-01T13:58:13;5.57;;;1.40;;
45338;SDS011;31071;51.478;5.710;2022-09-01T14:00:40;4.00;;;1.50;;
45338;SDS011;31071;51.478;5.710;2022-09-01T14:03:13;3.67;;;1.40;;
45338;SDS011;31071;51.478;5.710;2022-09-01T14:05:44;14.15;;;6.20;;
45338;SDS011;31071;51.478;5.710;2022-09-01T14:08:12;13.00;;;6.80;;
45338;SDS011;31071;51.478;5.710;2022-09-01T14:10:41;10.15;;;5.82;;
45338;SDS011;31071;51.478;5.710;2022-09-01T14:13:10;5.47;;;3.20;;
45338;SDS011;31071;51.478;5.710;2022-09-01T14:15:37;4.05;;;1.70;;
45338;SDS011;31071;51.478;5.710;2022-09-01T14:18:03;5.93;;;1.52;;
45338;SDS011;31071;51.478;5.710;2022-09-01T14:20:30;2.85;;;1.60;;
45338;SDS011;31071;51.478;5.710;2022-09-01T14:23:00;6.72;;;1.35;;
45338;SDS011;31071;51.478;5.710;2022-09-01T14:25:28;4.68;;;1.50;;
45338;SDS011;31071;51.478;5.710;2022-09-01T14:27:55;2.08;;;1.30;;
45338;SDS011;31071;51.478;5.710;2022-09-01T14:30:22;2.17;;;1.50;;
45338;SDS011;31071;51.478;5.710;2022-09-01T14:32:49;3.50;;;1.35;;
45338;SDS011;31071;51.478;5.710;2022-09-01T14:35:17;3.15;;;1.23;;
45338;SDS011;31071;51.478;5.710;2022-09-01T14:37:44;3.83;;;1.45;;
45338;SDS011;31071;51.478;5.710;2022-09-01T14:40:11;7.15;;;1.40;;
45338;SDS011;31071;51.478;5.710;2022-09-01T14:42:39;4.95;;;1.90;;
45338;SDS011;31071;51.478;5.710;2022-09-01T14:45:08;6.03;;;2.70;;
45338;SDS011;31071;51.478;5.710;2022-09-01T14:47:36;3.45;;;2.53;;
45338;SDS011;31071;51.478;5.710;2022-09-01T14:50:03;3.53;;;1.50;;
45338;SDS011;31071;51.478;5.710;2022-09-01T14:52:31;3.08;;;1.80;;
45338;SDS011;31071;51.478;5.710;2022-09-01T14:54:57;3.28;;;1.80;;
45338;SDS011;31071;51.478;5.710;2022-09-01T14:57:22;3.83;;;1.10;;
45338;SDS011;31071;51.478;5.710;2022-09-01T14:59:48;3.13;;;1.40;;
45338;SDS011;31071;51.478;5.710;2022-09-01T15:02:13;1.63;;;1.20;;
45338;SDS011;31071;51.478;5.710;2022-09-01T15:04:39;3.92;;;1.70;;
45338;SDS011;31071;51.478;5.710;2022-09-01T15:07:06;4.80;;;1.63;;
45338;SDS011;31071;51.478;5.710;2022-09-01T15:09:31;6.13;;;1.60;;
45338;SDS011;31071;51.478;5.710;2022-09-01T15:11:57;4.05;;;1.80;;
45338;SDS011;31071;51.478;5.710;2022-09-01T15:14:23;3.97;;;1.60;;
45338;SDS011;31071;51.478;5.710;2022-09-01T15:16:51;4.25;;;1.50;;
45338;SDS011;31071;51.478;5.710;2022-09-01T15:19:16;3.13;;;1.60;;
45338;SDS011;31071;51.478;5.710;2022-09-01T15:21:42;2.25;;;1.55;;
45338;SDS011;31071;51.478;5.710;2022-09-01T15:24:10;5.82;;;1.63;;
45338;SDS011;31071;51.478;5.710;2022-09-01T15:26:36;3.67;;;1.38;;
45338;SDS011;31071;51.478;5.710;2022-09-01T15:29:04;12.70;;;1.73;;
45338;SDS011;31071;51.478;5.710;2022-09-01T15:31:30;3.53;;;1.38;;
45338;SDS011;31071;51.478;5.710;2022-09-01T15:33:58;5.00;;;1.95;;
45338;SDS011;31071;51.478;5.710;2022-09-01T15:36:25;2.67;;;1.45;;
45338;SDS011;31071;51.478;5.710;2022-09-01T15:38:55;6.57;;;1.67;;
45338;SDS011;31071;51.478;5.710;2022-09-01T15:41:26;4.10;;;1.77;;
45338;SDS011;31071;51.478;5.710;2022-09-01T15:43:53;4.65;;;1.73;;
45338;SDS011;31071;51.478;5.710;2022-09-01T15:46:19;2.92;;;1.52;;
45338;SDS011;31071;51.478;5.710;2022-09-01T15:48:45;5.50;;;1.58;;
45338;SDS011;31071;51.478;5.710;2022-09-01T15:53:54;3.67;;;1.65;;
45338;SDS011;31071;51.478;5.710;2022-09-01T15:56:21;5.72;;;2.90;;
45338;SDS011;31071;51.478;5.710;2022-09-01T15:58:47;3.92;;;2.28;;
45338;SDS011;31071;51.478;5.710;2022-09-01T16:01:14;5.65;;;2.00;;
45338;SDS011;31071;51.478;5.710;2022-09-01T16:03:41;4.55;;;1.80;;
45338;SDS011;31071;51.478;5.710;2022-09-01T16:06:07;3.17;;;1.48;;
45338;SDS011;31071;51.478;5.710;2022-09-01T16:08:33;1.60;;;1.30;;
45338;SDS011;31071;51.478;5.710;2022-09-01T16:10:59;4.10;;;1.90;;
45338;SDS011;31071;51.478;5.710;2022-09-01T16:13:26;2.13;;;1.85;;
45338;SDS011;31071;51.478;5.710;2022-09-01T16:16:00;3.45;;;2.15;;
45338;SDS011;31071;51.478;5.710;2022-09-01T16:18:42;5.22;;;2.15;;
45338;SDS011;31071;51.478;5.710;2022-09-01T16:21:30;6.40;;;2.17;;
45338;SDS011;31071;51.478;5.710;2022-09-01T16:24:09;4.80;;;2.00;;